Time;durP1;ratioP1;P1;durP2;ratioP2;P2;SDS_P1;SDS_P2;PMS_P1;PMS_P2;Temp;Humidity;BMP_temperature;BMP_pressure;BME280_temperature;BME280_humidity;BME280_pressure;Samples;Min_cycle;Max_cycle;Signal;HPM_P1;HPM_P2
2022/01/15 00:00:50;;;;;;;6.50;3.67;;;;;;;-141.29;100.00;58932.97;5073792;28;20443;-75
2022/01/15 00:03:17;;;;;;;6.13;3.27;;;;;;;-141.29;100.00;58932.97;5072145;28;20456;-75
2022/01/15 00:05:46;;;;;;;6.63;3.80;;;;;;;-141.29;100.00;58932.97;5072208;28;20446;-76
2022/01/15 00:08:13;;;;;;;6.77;3.57;;;;;;;-141.29;100.00;58932.97;5072230;28;21053;-74
2022/01/15 00:10:41;;;;;;;6.33;3.70;;;;;;;-141.29;100.00;58932.97;5072077;28;21381;-75
2022/01/15 00:13:14;;;;;;;5.50;3.80;;;;;;;-141.29;100.00;58932.97;5072857;28;20481;-75
2022/01/15 00:15:48;;;;;;;5.00;3.53;;;;;;;-141.29;100.00;58932.97;5072117;28;20450;-75
2022/01/15 00:18:17;;;;;;;6.77;3.53;;;;;;;-141.29;100.00;58932.97;5072326;28;20438;-76
2022/01/15 00:20:45;;;;;;;9.37;4.60;;;;;;;-141.29;100.00;58932.97;5072232;28;20446;-76
2022/01/15 00:23:13;;;;;;;6.13;3.90;;;;;;;-141.29;100.00;58932.97;5071673;28;20527;-76
2022/01/15 00:25:40;;;;;;;6.60;3.60;;;;;;;-141.29;100.00;58932.97;5071847;28;20454;-74
2022/01/15 00:28:10;;;;;;;8.77;3.87;;;;;;;-141.29;100.00;58932.97;5072163;28;20488;-74
2022/01/15 00:30:39;;;;;;;5.80;3.43;;;;;;;-141.29;100.00;58932.97;5072763;28;20434;-75
2022/01/15 00:33:07;;;;;;;7.83;3.73;;;;;;;-141.29;100.00;58932.97;5071552;28;20536;-74
2022/01/15 00:35:37;;;;;;;6.90;3.83;;;;;;;-141.29;100.00;58932.97;5071617;28;20482;-76
2022/01/15 00:38:10;;;;;;;6.87;3.80;;;;;;;-141.29;100.00;58932.97;5072090;28;20451;-74
2022/01/15 00:40:42;;;;;;;7.50;3.67;;;;;;;-141.29;100.00;58932.97;5072016;28;20523;-75
2022/01/15 00:43:09;;;;;;;8.53;3.13;;;;;;;-141.29;100.00;58932.97;5073428;28;20450;-75
2022/01/15 00:45:41;;;;;;;6.47;3.70;;;;;;;-141.29;100.00;58932.97;5075738;28;20438;-75
2022/01/15 00:48:08;;;;;;;8.10;3.37;;;;;;;-141.29;100.00;58932.97;5075665;28;20529;-75
2022/01/15 00:50:36;;;;;;;8.83;4.10;;;;;;;-141.29;100.00;58932.97;5074322;28;20552;-74
2022/01/15 00:53:05;;;;;;;6.83;4.20;;;;;;;-141.29;100.00;58932.97;5075209;28;20439;-75
2022/01/15 00:55:32;;;;;;;5.93;3.70;;;;;;;-141.29;100.00;58932.97;5076326;28;20503;-74
2022/01/15 00:57:59;;;;;;;7.10;4.03;;;;;;;-141.29;100.00;58932.97;5075571;28;20418;-75
2022/01/15 01:00:35;;;;;;;5.83;3.90;;;;;;;-141.29;100.00;58932.97;5074048;28;20447;-75
2022/01/15 01:03:06;;;;;;;7.77;4.13;;;;;;;-141.29;100.00;58932.97;5076043;28;20438;-75
2022/01/15 01:05:36;;;;;;;5.97;3.70;;;;;;;-141.29;100.00;58932.97;5075297;28;20434;-75
2022/01/15 01:08:06;;;;;;;6.00;3.80;;;;;;;-141.29;100.00;58932.97;5075195;28;20967;-74
2022/01/15 01:10:49;;;;;;;5.57;3.47;;;;;;;-141.29;100.00;58932.97;5075210;28;20437;-75
2022/01/15 01:13:41;;;;;;;7.33;3.97;;;;;;;-141.29;100.00;58932.97;5075072;28;20462;-74
2022/01/15 01:24:26;;;;;;;6.17;3.63;;;;;;;-141.29;100.00;58932.97;5074560;28;20572;-74
2022/01/15 01:26:59;;;;;;;6.27;3.73;;;;;;;-141.29;100.00;58932.97;5075691;28;20441;-74
2022/01/15 01:32:29;;;;;;;5.83;3.50;;;;;;;-141.29;100.00;58932.97;5075089;28;20791;-75
2022/01/15 01:34:56;;;;;;;7.13;3.50;;;;;;;-141.29;100.00;58932.97;5074628;28;20478;-74
2022/01/15 01:37:32;;;;;;;8.03;4.10;;;;;;;-141.29;100.00;58932.97;5074781;28;20470;-74
2022/01/15 01:40:18;;;;;;;7.60;4.07;;;;;;;-141.29;100.00;58932.97;5074850;28;20437;-75
2022/01/15 01:42:56;;;;;;;7.60;3.80;;;;;;;-141.29;100.00;58932.97;5074835;28;20541;-74
2022/01/15 01:45:24;;;;;;;8.47;4.10;;;;;;;-141.29;100.00;58932.97;5074958;28;20823;-75
2022/01/15 01:47:54;;;;;;;6.93;4.30;;;;;;;-141.29;100.00;58932.97;5074628;28;20976;-75
2022/01/15 01:50:24;;;;;;;7.17;3.90;;;;;;;-141.29;100.00;58932.97;5074090;28;20507;-75
2022/01/15 01:52:53;;;;;;;6.33;3.80;;;;;;;-141.29;100.00;58932.97;5074815;28;20439;-74
2022/01/15 01:55:26;;;;;;;8.10;4.03;;;;;;;-141.29;100.00;58932.97;5074375;28;20490;-74
2022/01/15 01:57:56;;;;;;;9.13;4.07;;;;;;;-141.29;100.00;58932.97;5074594;28;20466;-73
2022/01/15 02:00:28;;;;;;;7.50;3.90;;;;;;;-141.29;100.00;58932.97;5074361;28;20435;-74
2022/01/15 02:02:56;;;;;;;9.57;4.17;;;;;;;-141.29;100.00;58932.97;5073395;28;20817;-74
2022/01/15 02:05:25;;;;;;;9.40;4.23;;;;;;;-141.29;100.00;58932.97;5077046;28;20457;-74
2022/01/15 02:07:54;;;;;;;6.63;4.17;;;;;;;-141.29;100.00;58932.97;5078467;28;20431;-74
2022/01/15 02:10:24;;;;;;;7.50;4.27;;;;;;;-141.29;100.00;58932.97;5074242;28;20443;-74
2022/01/15 02:12:55;;;;;;;8.07;4.17;;;;;;;-141.29;100.00;58932.97;5074001;28;20446;-74
2022/01/15 02:15:23;;;;;;;7.27;4.20;;;;;;;-141.29;100.00;58932.97;5073597;28;20873;-76
2022/01/15 02:17:52;;;;;;;8.60;4.43;;;;;;;-141.29;100.00;58932.97;5074294;28;20442;-75
2022/01/15 02:25:52;;;;;;;10.03;5.00;;;;;;;-141.29;100.00;58932.97;5074189;28;20441;-74
2022/01/15 02:28:22;;;;;;;7.77;4.27;;;;;;;-141.29;100.00;58932.97;5073861;28;20446;-75
2022/01/15 02:30:53;;;;;;;7.97;4.43;;;;;;;-141.29;100.00;58932.97;5073817;28;20450;-74
2022/01/15 02:33:21;;;;;;;7.73;4.60;;;;;;;-141.29;100.00;58932.97;5074262;28;20526;-74
2022/01/15 02:35:50;;;;;;;6.93;4.50;;;;;;;-141.29;100.00;58932.97;5073251;28;20486;-75
2022/01/15 02:38:21;;;;;;;8.00;4.20;;;;;;;-141.29;100.00;58932.97;5073867;28;20437;-77
2022/01/15 02:40:52;;;;;;;7.73;3.97;;;;;;;-141.29;100.00;58932.97;5073721;28;20451;-74
2022/01/15 02:43:29;;;;;;;7.93;4.50;;;;;;;-141.29;100.00;58932.97;5073471;28;20455;-73
2022/01/15 02:45:58;;;;;;;6.23;3.90;;;;;;;-141.29;100.00;58932.97;5074265;28;20446;-76
2022/01/15 02:48:29;;;;;;;8.47;4.40;;;;;;;-141.29;100.00;58932.97;5072239;28;20446;-74
2022/01/15 02:50:58;;;;;;;7.73;4.50;;;;;;;-141.29;100.00;58932.97;5073859;28;20470;-75
2022/01/15 02:53:27;;;;;;;6.10;4.00;;;;;;;-141.29;100.00;58932.97;5078006;28;20531;-73
2022/01/15 02:55:57;;;;;;;8.47;4.70;;;;;;;-141.29;100.00;58932.97;5073050;28;20490;-76
2022/01/15 02:58:28;;;;;;;7.27;4.00;;;;;;;-141.29;100.00;58932.97;5072063;28;20435;-74
2022/01/15 03:00:56;;;;;;;8.20;4.50;;;;;;;-141.29;100.00;58932.97;5072595;28;20863;-76
2022/01/15 03:03:23;;;;;;;9.93;4.20;;;;;;;-141.29;100.00;58932.97;5073068;28;20459;-75
2022/01/15 03:05:50;;;;;;;7.47;4.03;;;;;;;-141.29;100.00;58932.97;5072621;28;20442;-74
2022/01/15 03:08:20;;;;;;;9.63;4.53;;;;;;;-141.29;100.00;58932.97;5072265;28;20888;-73
2022/01/15 03:10:49;;;;;;;10.10;4.40;;;;;;;-141.29;100.00;58932.97;5073309;28;20431;-75
2022/01/15 03:13:16;;;;;;;7.20;3.97;;;;;;;-141.29;100.00;58932.97;5071815;28;20450;-74
2022/01/15 03:15:48;;;;;;;6.47;3.80;;;;;;;-141.29;100.00;58932.97;5073425;28;20848;-74
2022/01/15 03:18:17;;;;;;;6.83;4.03;;;;;;;-141.29;100.00;58932.97;5072951;28;20478;-74
2022/01/15 03:20:51;;;;;;;7.93;4.50;;;;;;;-141.29;100.00;58932.97;5072893;28;20455;-73
2022/01/15 03:23:22;;;;;;;10.30;4.80;;;;;;;-141.29;100.00;58932.97;5071582;28;20983;-78
2022/01/15 03:25:53;;;;;;;7.70;4.10;;;;;;;-141.29;100.00;58932.97;5073098;28;20443;-75
2022/01/15 03:28:31;;;;;;;6.73;4.37;;;;;;;4.89;100.00;61324.75;5089549;27;20548;-75
2022/01/15 03:30:59;;;;;;;11.87;4.70;;;;;;;4.80;100.00;61318.22;5089817;28;20447;-75
2022/01/15 03:33:35;;;;;;;8.50;4.60;;;;;;;3.63;100.00;61189.19;5089329;28;20468;-74
2022/01/15 03:36:03;;;;;;;9.23;5.20;;;;;;;4.72;100.00;61309.16;5089603;28;20450;-74
2022/01/15 03:38:30;;;;;;;10.47;5.73;;;;;;;3.08;100.00;61130.72;5089349;28;20450;-75
2022/01/15 03:40:57;;;;;;;10.20;4.93;;;;;;;4.56;100.00;61292.66;5089006;28;20483;-74
2022/01/15 03:43:27;;;;;;;9.10;4.63;;;;;;;4.59;100.00;61290.28;5089103;28;20438;-74
2022/01/15 03:45:57;;;;;;;9.20;5.37;;;;;;;4.45;100.00;61275.38;5089412;28;20896;-73
2022/01/15 03:48:27;;;;;;;10.83;6.27;;;;;;;4.40;100.00;61270.03;5089110;28;20489;-77
2022/01/15 03:50:54;;;;;;;10.63;5.77;;;;;;;4.31;100.00;61263.50;5089104;28;20541;-74
2022/01/15 03:53:23;;;;;;;10.67;4.77;;;;;;;4.19;100.00;61250.75;5089356;28;20998;-75
2022/01/15 03:55:51;;;;;;;12.47;4.87;;;;;;;4.27;100.00;61257.28;5090357;28;20449;-74
2022/01/15 03:58:22;;;;;;;8.23;5.00;;;;;;;4.42;100.00;61277.75;5088842;28;20544;-75
2022/01/15 04:01:03;;;;;;;9.83;5.43;;;;;;;4.27;100.00;61262.31;5089385;28;20538;-76
2022/01/15 04:03:31;;;;;;;9.47;4.77;;;;;;;3.44;100.00;61171.50;5089313;28;20430;-76
2022/01/15 04:06:12;;;;;;;9.27;5.33;;;;;;;4.29;100.00;61261.94;5089046;28;20430;-77
2022/01/15 04:08:42;;;;;;;8.83;5.30;;;;;;;4.24;100.00;61256.63;5089297;28;20445;-75
2022/01/15 04:11:10;;;;;;;9.40;4.70;;;;;;;4.45;100.00;61277.91;5089072;28;21030;-74
2022/01/15 04:13:46;;;;;;;8.17;4.33;;;;;;;4.41;100.00;61273.63;5089306;28;20434;-73
2022/01/15 04:16:19;;;;;;;10.20;5.47;;;;;;;3.40;100.00;61169.78;5089873;28;20474;-75
2022/01/15 04:18:51;;;;;;;9.43;5.00;;;;;;;4.41;100.00;61276.16;5088561;28;20510;-75
2022/01/15 04:21:20;;;;;;;13.23;5.73;;;;;;;4.18;100.00;61252.75;5088409;28;20957;-75
2022/01/15 04:23:49;;;;;;;10.27;5.87;;;;;;;3.56;100.00;61186.78;5088625;28;20422;-75
2022/01/15 04:26:24;;;;;;;7.47;4.10;;;;;;;3.00;100.00;61127.25;5087966;28;20940;-75
2022/01/15 04:28:54;;;;;;;11.23;5.40;;;;;;;4.40;100.00;61275.09;5088799;28;20843;-76
2022/01/15 04:31:24;;;;;;;7.73;4.87;;;;;;;4.33;100.00;61267.66;5088107;28;20454;-75
2022/01/15 04:33:52;;;;;;;8.97;4.87;;;;;;;3.24;100.00;61147.72;5088656;28;20458;-75
2022/01/15 04:36:20;;;;;;;11.43;6.40;;;;;;;4.23;100.00;61258.06;5096135;28;20562;-73
2022/01/15 04:38:48;;;;;;;10.13;5.23;;;;;;;3.05;100.00;61127.53;5080583;28;20433;-75
2022/01/15 04:41:17;;;;;;;9.77;5.37;;;;;;;4.14;100.00;61245.97;5074391;28;20497;-75
2022/01/15 04:43:46;;;;;;;10.87;6.07;;;;;;;3.17;100.00;61142.78;5074411;28;20545;-73
2022/01/15 04:46:14;;;;;;;11.50;5.40;;;;;;;2.52;100.00;61072.25;5074783;28;20431;-74
2022/01/15 04:48:42;;;;;;;10.13;5.53;;;;;;;4.08;100.00;61239.59;5074868;28;20478;-73
2022/01/15 04:51:09;;;;;;;12.37;6.50;;;;;;;4.16;100.00;61248.09;5073944;28;20447;-74
2022/01/15 04:53:36;;;;;;;11.40;5.97;;;;;;;4.09;100.00;61238.13;5074606;28;20431;-74
2022/01/15 04:56:04;;;;;;;12.70;6.30;;;;;;;4.14;100.00;61248.50;5074260;28;20443;-76
2022/01/15 04:58:32;;;;;;;15.07;6.67;;;;;;;4.09;100.00;61240.63;5074191;28;20442;-75
2022/01/15 05:01:02;;;;;;;11.53;6.33;;;;;;;4.05;100.00;61238.91;5073932;28;20512;-77
2022/01/15 05:03:29;;;;;;;12.90;6.87;;;;;;;4.03;100.00;61231.72;5074401;28;20478;-74
2022/01/15 05:05:59;;;;;;;11.90;6.90;;;;;;;4.02;100.00;61235.72;5074366;28;20438;-76
2022/01/15 05:08:27;;;;;;;13.07;6.63;;;;;;;3.96;100.00;61226.28;5073830;28;20555;-75
2022/01/15 05:10:58;;;;;;;13.47;7.60;;;;;;;4.07;100.00;61237.97;5074016;28;20434;-74
2022/01/15 05:13:29;;;;;;;13.07;6.73;;;;;;;2.43;100.00;61062.72;5074872;28;20869;-77
2022/01/15 05:15:58;;;;;;;13.43;7.30;;;;;;;3.91;100.00;61226.53;5074248;28;20434;-75
2022/01/15 05:18:26;;;;;;;11.83;6.30;;;;;;;2.79;100.00;61099.88;5073867;28;20450;-74
2022/01/15 05:20:53;;;;;;;14.00;7.37;;;;;;;2.58;100.00;61082.63;5073852;28;20936;-74
2022/01/15 05:23:25;;;;;;;15.70;7.27;;;;;;;3.87;100.00;61217.22;5073637;28;20450;-74
2022/01/15 05:25:52;;;;;;;13.70;7.23;;;;;;;3.82;100.00;61214.44;5073862;28;20442;-75
2022/01/15 05:28:20;;;;;;;16.03;6.97;;;;;;;3.91;100.00;61218.97;5073769;28;20490;-76
2022/01/15 05:30:48;;;;;;;16.47;8.30;;;;;;;3.80;100.00;61212.31;5073902;28;20941;-73
2022/01/15 05:33:16;;;;;;;15.13;7.93;;;;;;;3.79;100.00;61211.25;5072590;28;20786;-74
2022/01/15 05:35:44;;;;;;;17.43;8.53;;;;;;;3.78;100.00;61205.16;5073711;28;20832;-74
2022/01/15 05:38:11;;;;;;;14.60;8.10;;;;;;;2.95;100.00;61121.91;5073413;28;20488;-76
2022/01/15 05:40:39;;;;;;;14.27;6.67;;;;;;;3.76;100.00;61207.53;5073567;28;20434;-75
2022/01/15 05:43:06;;;;;;;15.63;7.10;;;;;;;3.79;100.00;61208.72;5073690;28;20508;-73
2022/01/15 05:45:33;;;;;;;14.77;7.20;;;;;;;3.70;100.00;61199.16;5073218;28;20880;-75
2022/01/15 05:48:08;;;;;;;15.60;8.77;;;;;;;3.77;100.00;61206.59;5073284;28;20485;-73
2022/01/15 05:50:35;;;;;;;15.30;8.23;;;;;;;2.13;100.00;61035.88;5072097;28;20519;-74
2022/01/15 05:53:05;;;;;;;13.03;7.73;;;;;;;3.69;100.00;61195.03;5073342;28;20512;-73
2022/01/15 05:55:32;;;;;;;15.30;8.60;;;;;;;3.70;100.00;61196.63;5073109;28;20492;-76
2022/01/15 05:58:00;;;;;;;17.03;7.63;;;;;;;3.76;100.00;61208.06;5073222;28;20443;-74
2022/01/15 06:00:30;;;;;;;22.60;9.03;;;;;;;3.75;100.00;61204.47;5073045;28;20945;-75
2022/01/15 06:02:58;;;;;;;17.20;9.17;;;;;;;2.50;100.00;61075.16;5073174;28;20879;-76
2022/01/15 06:05:26;;;;;;;15.97;8.40;;;;;;;3.63;100.00;61194.22;5072898;28;20456;-75
2022/01/15 06:07:53;;;;;;;15.03;7.90;;;;;;;3.59;100.00;61186.91;5072746;28;20482;-74
2022/01/15 06:10:21;;;;;;;14.70;8.40;;;;;;;3.59;100.00;61189.97;5072796;28;20446;-75
2022/01/15 06:12:48;;;;;;;15.93;8.83;;;;;;;3.54;100.00;61184.66;5073127;28;20439;-75
2022/01/15 06:15:20;;;;;;;14.33;7.00;;;;;;;3.67;100.00;61193.44;5072681;28;20443;-75
2022/01/15 06:17:47;;;;;;;15.07;7.90;;;;;;;3.61;100.00;61192.09;5073415;28;20965;-74
2022/01/15 06:20:16;;;;;;;17.47;8.30;;;;;;;3.57;100.00;61185.31;5078101;28;20816;-74
2022/01/15 06:22:43;;;;;;;15.27;9.10;;;;;;;3.63;100.00;61191.69;5072568;28;21035;-74
2022/01/15 06:25:11;;;;;;;15.17;8.57;;;;;;;3.07;100.00;61130.19;5074955;28;20442;-74
2022/01/15 06:27:41;;;;;;;18.63;8.60;;;;;;;3.39;100.00;61163.66;5073032;28;20486;-72
2022/01/15 06:30:11;;;;;;;18.13;8.43;;;;;;;3.65;100.00;61191.31;5072686;28;20530;-73
2022/01/15 06:32:42;;;;;;;21.43;9.10;;;;;;;3.70;100.00;61204.19;5072266;28;20961;-75
2022/01/15 06:35:12;;;;;;;20.03;9.50;;;;;;;3.61;100.00;61189.03;5072411;28;20492;-75
2022/01/15 06:37:41;;;;;;;16.53;7.77;;;;;;;3.51;100.00;61181.47;5072652;28;20481;-73
2022/01/15 06:40:09;;;;;;;18.80;9.73;;;;;;;3.54;100.00;61182.13;5071956;28;20480;-76
2022/01/15 06:42:39;;;;;;;20.17;10.17;;;;;;;3.00;100.00;61122.22;5071913;28;20454;-75
2022/01/15 06:45:08;;;;;;;15.50;8.60;;;;;;;2.28;100.00;61049.28;5071957;28;20946;-75
2022/01/15 06:47:35;;;;;;;16.97;7.90;;;;;;;2.23;100.00;61038.44;5072144;28;20846;-77
2022/01/15 06:50:19;;;;;;;21.30;10.27;;;;;;;3.46;100.00;61173.63;5072114;28;20467;-75
2022/01/15 06:52:49;;;;;;;16.60;9.60;;;;;;;3.53;100.00;61183.59;5069993;28;20447;-73
2022/01/15 06:55:18;;;;;;;15.00;8.67;;;;;;;3.54;100.00;61179.09;5072451;28;20508;-74
2022/01/15 06:57:49;;;;;;;16.93;9.53;;;;;;;3.50;100.00;61180.41;5071948;28;20508;-73
2022/01/15 07:00:17;;;;;;;16.90;10.30;;;;;;;3.50;100.00;61174.84;5072160;28;20779;-76
2022/01/15 07:02:50;;;;;;;17.37;8.90;;;;;;;3.47;100.00;61174.16;5071559;28;20454;-75
2022/01/15 07:05:22;;;;;;;16.20;9.10;;;;;;;3.58;100.00;61191.44;5072772;28;20480;-75
2022/01/15 07:07:52;;;;;;;17.20;9.40;;;;;;;3.57;100.00;61182.81;5072591;28;20501;-75
2022/01/15 07:10:20;;;;;;;17.63;8.67;;;;;;;3.64;100.00;61192.78;5071880;28;20450;-75
2022/01/15 07:12:48;;;;;;;15.90;9.00;;;;;;;3.82;100.00;61209.41;5071781;28;20439;-73
2022/01/15 07:15:15;;;;;;;18.23;8.63;;;;;;;3.87;100.00;61217.22;5071762;28;20519;-75
2022/01/15 07:17:45;;;;;;;16.77;9.50;;;;;;;3.83;100.00;61212.97;5071551;28;20496;-75
2022/01/15 07:20:14;;;;;;;18.10;9.60;;;;;;;2.81;100.00;61100.03;5071831;28;20495;-74
2022/01/15 07:22:43;;;;;;;19.10;9.80;;;;;;;4.14;100.00;61245.97;5072390;28;20447;-76
2022/01/15 07:25:12;;;;;;;17.90;9.67;;;;;;;3.15;100.00;61141.19;5071613;28;20500;-74
2022/01/15 07:27:43;;;;;;;16.93;9.53;;;;;;;4.18;100.00;61252.22;5071193;28;20552;-75
2022/01/15 07:30:12;;;;;;;16.00;8.80;;;;;;;4.21;100.00;61255.94;5071261;28;20451;-73
2022/01/15 07:32:51;;;;;;;23.50;9.70;;;;;;;4.35;100.00;61264.72;5071357;28;20512;-76
2022/01/15 07:35:21;;;;;;;18.37;10.20;;;;;;;3.19;100.00;61147.44;5071986;28;20847;-75
2022/01/15 07:37:50;;;;;;;17.30;9.63;;;;;;;4.37;100.00;61269.38;5071535;28;20512;-75
2022/01/15 07:40:21;;;;;;;17.50;9.77;;;;;;;4.35;100.00;61269.78;5071391;28;20446;-73
2022/01/15 07:42:50;;;;;;;19.07;10.07;;;;;;;4.28;100.00;61260.88;5071504;28;20438;-74
2022/01/15 07:45:19;;;;;;;16.97;9.47;;;;;;;4.32;100.00;61261.53;5071703;28;20443;-76
2022/01/15 07:47:46;;;;;;;15.93;9.50;;;;;;;4.25;100.00;61260.19;5071399;28;20478;-75
2022/01/15 07:50:23;;;;;;;16.80;9.03;;;;;;;4.35;100.00;61270.28;5071743;28;20520;-76
2022/01/15 07:52:58;;;;;;;17.20;9.73;;;;;;;3.80;100.00;61212.31;5071534;28;20438;-74
2022/01/15 07:55:27;;;;;;;19.37;10.13;;;;;;;4.36;100.00;61266.31;5071625;28;20789;-75
2022/01/15 07:57:54;;;;;;;22.23;11.23;;;;;;;4.41;100.00;61276.16;5071470;28;20443;-74
2022/01/15 08:00:22;;;;;;;17.20;9.97;;;;;;;4.44;100.00;61274.84;5071524;28;20443;-73
2022/01/15 08:02:57;;;;;;;20.07;10.00;;;;;;;4.34;100.00;61266.72;5072746;28;20886;-75
2022/01/15 08:05:25;;;;;;;19.70;10.00;;;;;;;4.40;100.00;61270.03;5074725;28;20430;-76
2022/01/15 08:07:57;;;;;;;20.23;10.83;;;;;;;3.54;100.00;61184.66;5071303;28;21069;-76
2022/01/15 08:10:27;;;;;;;20.47;11.57;;;;;;;4.48;100.00;61278.56;5070974;28;20454;-75
2022/01/15 08:12:55;;;;;;;19.50;10.20;;;;;;;4.54;100.00;61290.00;5071220;28;20447;-73
2022/01/15 08:15:25;;;;;;;18.13;10.90;;;;;;;3.01;100.00;61123.81;5074575;28;20504;-75
2022/01/15 08:17:52;;;;;;;21.40;11.97;;;;;;;3.62;100.00;61188.13;5073298;28;20462;-76
2022/01/15 08:20:20;;;;;;;23.30;11.93;;;;;;;4.54;100.00;61290.00;5075006;28;20517;-75
2022/01/15 08:22:51;;;;;;;21.57;11.13;;;;;;;4.68;100.00;61302.91;5076241;28;20449;-76
2022/01/15 08:25:33;;;;;;;22.80;11.60;;;;;;;4.63;100.00;61294.53;5075590;28;20448;-77
2022/01/15 08:28:02;;;;;;;18.87;10.13;;;;;;;4.48;100.00;61278.56;5076233;28;20478;-75
2022/01/15 08:30:30;;;;;;;21.23;10.70;;;;;;;3.47;100.00;61171.63;5074646;28;20439;-75
2022/01/15 08:32:58;;;;;;;17.60;10.97;;;;;;;4.54;100.00;61287.47;5074611;28;20504;-74
2022/01/15 08:35:28;;;;;;;21.53;11.23;;;;;;;4.52;100.00;61288.41;5076045;28;20462;-74
2022/01/15 08:38:02;;;;;;;21.97;10.73;;;;;;;4.62;100.00;61298.50;5078032;28;20458;-74
2022/01/15 08:40:33;;;;;;;20.37;9.00;;;;;;;4.41;100.00;61276.16;5073557;28;20442;-76
2022/01/15 08:43:00;;;;;;;18.97;9.90;;;;;;;3.39;100.00;61166.19;5073555;28;21034;-74
2022/01/15 08:45:28;;;;;;;22.43;11.43;;;;;;;3.74;100.00;61203.41;5075081;28;20956;-72
2022/01/15 08:47:55;;;;;;;23.60;12.47;;;;;;;3.24;100.00;61148.25;5074162;28;20550;-75
2022/01/15 08:50:24;;;;;;;17.07;10.50;;;;;;;4.56;100.00;61289.59;5074915;28;20875;-75
2022/01/15 08:52:52;;;;;;;23.43;11.27;;;;;;;3.31;100.00;61158.22;5074966;28;20472;-74
2022/01/15 08:55:20;;;;;;;17.57;10.20;;;;;;;4.73;100.00;61310.75;5077853;28;20826;-75
2022/01/15 08:57:49;;;;;;;19.17;10.13;;;;;;;5.06;100.00;61340.31;5077842;28;20455;-75
2022/01/15 09:00:23;;;;;;;18.40;9.80;;;;;;;5.08;100.00;61345.50;5074263;28;20435;-75
2022/01/15 09:02:52;;;;;;;14.83;8.33;;;;;;;5.10;100.00;61345.13;5074052;28;20958;-74
2022/01/15 09:05:20;;;;;;;18.90;10.67;;;;;;;5.25;100.00;61365.63;5072993;28;20829;-75
2022/01/15 09:07:51;;;;;;;23.13;10.77;;;;;;;5.44;100.00;61380.81;5073978;28;20478;-74
2022/01/15 09:10:20;;;;;;;20.57;11.23;;;;;;;5.42;100.00;61383.19;5074364;28;20507;-77
2022/01/15 09:12:50;;;;;;;20.77;10.43;;;;;;;5.30;100.00;61370.94;5073420;28;20457;-74
2022/01/15 09:15:20;;;;;;;16.07;9.70;;;;;;;5.21;100.00;61360.81;5074548;28;20522;-74
2022/01/15 09:17:51;;;;;;;20.20;11.43;;;;;;;5.03;100.00;61337.13;5072969;28;20492;-76
2022/01/15 09:20:20;;;;;;;19.93;11.17;;;;;;;3.74;100.00;61208.44;5074147;28;21014;-75
2022/01/15 09:22:47;;;;;;;22.57;11.07;;;;;;;4.96;100.00;61335.25;5074000;28;20502;-73
2022/01/15 09:25:14;;;;;;;20.63;12.00;;;;;;;3.25;100.00;61153.81;5073892;28;20442;-74
2022/01/15 09:30:32;;;;;;;20.50;10.23;;;;;;;4.76;100.00;61310.91;5073689;28;20433;-74
2022/01/15 09:32:59;;;;;;;23.17;11.17;;;;;;;4.64;100.00;61300.63;5073363;28;20458;-75
2022/01/15 09:35:31;;;;;;;21.27;12.23;;;;;;;4.91;100.00;61329.91;5073484;28;20454;-74
2022/01/15 09:38:00;;;;;;;18.37;10.20;;;;;;;4.53;100.00;61283.91;5073986;28;20455;-74
2022/01/15 09:40:29;;;;;;;19.80;10.17;;;;;;;5.14;100.00;61349.38;5073476;28;20454;-75
2022/01/15 09:43:01;;;;;;;17.53;9.63;;;;;;;5.21;100.00;61355.78;5073521;28;20442;-74
2022/01/15 09:45:30;;;;;;;17.73;9.93;;;;;;;5.68;100.00;61411.44;5073561;28;20458;-74
2022/01/15 09:48:00;;;;;;;16.13;8.47;;;;;;;5.87;100.00;61429.19;5074088;28;20529;-75
2022/01/15 09:50:30;;;;;;;17.20;10.13;;;;;;;5.90;100.00;61434.91;5073740;28;20482;-75
2022/01/15 09:53:02;;;;;;;24.13;10.23;;;;;;;5.96;100.00;61436.25;5073588;28;20434;-76
2022/01/15 09:55:32;;;;;;;15.03;7.87;;;;;;;5.89;100.00;61430.78;5073847;28;20427;-76
2022/01/15 09:58:00;;;;;;;20.57;10.40;;;;;;;5.92;100.00;61436.50;5073191;28;20447;-75
2022/01/15 10:00:32;;;;;;;21.77;9.33;;;;;;;5.85;100.00;61424.53;5073397;28;20422;-74
2022/01/15 10:03:00;;;;;;;16.27;9.33;;;;;;;5.93;100.00;61433.06;5073091;28;20937;-76
2022/01/15 10:05:28;;;;;;;16.80;9.70;;;;;;;4.45;100.00;61277.91;5072975;28;20492;-74
2022/01/15 10:08:00;;;;;;;18.07;10.23;;;;;;;5.74;100.00;61417.81;5073272;28;20435;-75
2022/01/15 10:10:36;;;;;;;18.07;9.17;;;;;;;5.56;100.00;61398.66;5072740;28;20482;-75
2022/01/15 10:13:15;;;;;;;23.07;9.87;;;;;;;5.59;100.00;61396.78;5072621;28;20446;-75
2022/01/15 10:15:46;;;;;;;19.20;10.60;;;;;;;5.64;100.00;61402.13;5072636;28;20973;-76
2022/01/15 10:18:23;;;;;;;16.60;9.83;;;;;;;5.67;100.00;61405.31;5072325;28;20508;-75
2022/01/15 10:20:51;;;;;;;18.33;8.63;;;;;;;4.94;100.00;61327.53;5071371;28;20469;-73
2022/01/15 10:23:22;;;;;;;23.87;8.53;;;;;;;5.84;100.00;61428.50;5072545;28;21102;-75
2022/01/15 10:28:59;;;;;;;19.60;8.30;;;;;;;6.32;100.00;61476.09;5072145;28;20489;-76
2022/01/15 10:31:31;;;;;;;14.63;7.93;;;;;;;6.36;100.00;61480.91;5072589;28;20791;-75
2022/01/15 10:34:01;;;;;;;20.23;8.23;;;;;;;6.21;100.00;61464.38;5072631;28;20443;-75
2022/01/15 10:36:33;;;;;;;14.20;8.70;;;;;;;6.54;100.00;61497.03;5071675;28;20497;-75
2022/01/15 10:39:15;;;;;;;15.90;7.80;;;;;;;5.49;100.00;61386.13;5072552;28;20461;-75
2022/01/15 10:41:47;;;;;;;16.10;8.57;;;;;;;7.21;100.00;61568.00;5070994;28;20452;-76
2022/01/15 10:44:33;;;;;;;14.03;7.37;;;;;;;6.28;100.00;61474.38;5072166;28;20450;-75
2022/01/15 10:47:07;;;;;;;12.60;7.43;;;;;;;6.97;100.00;61545.44;5072415;28;20530;-76
2022/01/15 10:49:39;;;;;;;13.60;7.50;;;;;;;6.21;100.00;61464.91;5076290;28;20494;-75
2022/01/15 10:52:17;;;;;;;16.60;9.20;;;;;;;6.74;100.00;61523.44;5072517;28;20527;-74
2022/01/15 10:54:58;;;;;;;16.63;8.93;;;;;;;6.75;100.00;61521.97;5072026;28;20466;-74
2022/01/15 10:57:30;;;;;;;20.40;9.70;;;;;;;5.51;100.00;61392.78;5071821;28;21035;-75
2022/01/15 11:00:25;;;;;;;20.60;10.33;;;;;;;7.26;100.00;61576.41;5071922;28;20500;-76
2022/01/15 11:03:02;;;;;;;15.10;8.87;;;;;;;6.96;100.00;61541.88;5036827;28;20434;-75
2022/01/15 11:05:35;;;;;;;15.80;8.67;;;;;;;5.94;100.00;61439.16;5071900;28;20504;-74
2022/01/15 11:08:17;;;;;;;16.73;8.63;;;;;;;6.20;100.00;61463.31;5072227;28;20941;-75
2022/01/15 11:10:55;;;;;;;13.90;7.30;;;;;;;6.11;100.00;61456.22;5071394;28;20944;-75
2022/01/15 11:13:28;;;;;;;17.33;8.53;;;;;;;6.43;100.00;61487.84;5072801;28;20451;-75
2022/01/15 11:15:56;;;;;;;14.07;7.77;;;;;;;6.56;100.00;61499.19;5071903;28;20455;-75
2022/01/15 11:18:40;;;;;;;13.30;7.37;;;;;;;6.63;100.00;61511.69;5072114;28;20925;-74
2022/01/15 11:21:11;;;;;;;11.93;7.73;;;;;;;6.73;100.00;61522.38;5072063;28;20438;-74
2022/01/15 11:24:07;;;;;;;15.17;7.20;;;;;;;6.67;100.00;61510.91;5070504;28;20536;-76
2022/01/15 11:26:41;;;;;;;16.23;7.10;;;;;;;6.99;100.00;61547.59;5072069;28;20470;-76
2022/01/15 11:29:08;;;;;;;15.33;8.13;;;;;;;5.95;100.00;61437.72;5070834;28;20500;-76
2022/01/15 11:31:38;;;;;;;19.93;8.67;;;;;;;6.91;100.00;61539.03;5070686;28;20452;-74
2022/01/15 11:34:09;;;;;;;17.50;10.00;;;;;;;6.76;100.00;61523.56;5074930;28;20512;-76
2022/01/15 11:36:39;;;;;;;16.97;8.60;;;;;;;7.25;100.00;61577.88;5072539;28;20442;-75
2022/01/15 11:39:09;;;;;;;12.53;8.40;;;;;;;6.24;100.00;61470.63;5071973;28;20446;-77
2022/01/15 11:41:53;;;;;;;15.30;8.40;;;;;;;8.06;100.00;61658.78;5071861;28;20434;-76
2022/01/15 11:44:39;;;;;;;19.73;8.17;;;;;;;9.21;100.00;61780.69;5070619;28;20807;-75
2022/01/15 11:47:17;;;;;;;14.80;7.87;;;;;;;10.59;100.00;61927.34;5071458;28;20443;-74
2022/01/15 11:49:49;;;;;;;12.10;7.03;;;;;;;9.59;100.00;61823.34;5073349;28;21055;-77
2022/01/15 11:52:45;;;;;;;11.30;7.80;;;;;;;11.77;100.00;62058.94;5076208;28;20434;-74
2022/01/15 11:55:24;;;;;;;17.97;8.00;;;;;;;11.68;100.00;62044.19;5076313;28;20529;-74
2022/01/15 11:58:13;;;;;;;13.40;8.23;;;;;;;12.08;100.00;62089.13;5075693;28;20670;-76